sensor_id;sensor_type;location;lat;lon;timestamp;temperature;humidity
71177;DHT22;58877;51.992;4.504;2023-03-12T00:00:39;5.46;62.49
71177;DHT22;58877;51.992;4.504;2023-03-12T00:03:05;5.42;61.95
71177;DHT22;58877;51.992;4.504;2023-03-12T00:05:31;5.42;61.15
71177;DHT22;58877;51.992;4.504;2023-03-12T00:07:57;5.47;61.35
71177;DHT22;58877;51.992;4.504;2023-03-12T00:10:25;5.47;61.44
71177;DHT22;58877;51.992;4.504;2023-03-12T00:12:51;5.44;61.33
71177;DHT22;58877;51.992;4.504;2023-03-12T00:15:17;5.51;61.35
71177;DHT22;58877;51.992;4.504;2023-03-12T00:17:42;5.50;61.42
71177;DHT22;58877;51.992;4.504;2023-03-12T00:20:08;5.51;61.73
71177;DHT22;58877;51.992;4.504;2023-03-12T00:22:34;5.51;61.64
71177;DHT22;58877;51.992;4.504;2023-03-12T00:25:01;5.50;61.59
71177;DHT22;58877;51.992;4.504;2023-03-12T00:27:27;5.51;61.81
71177;DHT22;58877;51.992;4.504;2023-03-12T00:29:52;5.50;61.84
71177;DHT22;58877;51.992;4.504;2023-03-12T00:32:19;5.51;61.65
71177;DHT22;58877;51.992;4.504;2023-03-12T00:34:52;5.51;62.05
71177;DHT22;58877;51.992;4.504;2023-03-12T00:37:18;5.47;62.14
71177;DHT22;58877;51.992;4.504;2023-03-12T00:39:44;5.47;62.01
71177;DHT22;58877;51.992;4.504;2023-03-12T00:42:09;5.46;61.81
71177;DHT22;58877;51.992;4.504;2023-03-12T00:44:35;5.44;61.79
71177;DHT22;58877;51.992;4.504;2023-03-12T00:47:01;5.46;61.77
71177;DHT22;58877;51.992;4.504;2023-03-12T00:49:26;5.48;61.30
71177;DHT22;58877;51.992;4.504;2023-03-12T00:51:52;5.50;61.33
71177;DHT22;58877;51.992;4.504;2023-03-12T00:54:18;5.50;61.01
71177;DHT22;58877;51.992;4.504;2023-03-12T00:56:44;5.47;60.87
71177;DHT22;58877;51.992;4.504;2023-03-12T00:59:12;5.51;60.40
71177;DHT22;58877;51.992;4.504;2023-03-12T01:01:38;5.54;60.69
71177;DHT22;58877;51.992;4.504;2023-03-12T01:04:04;5.60;60.24
71177;DHT22;58877;51.992;4.504;2023-03-12T01:06:30;5.67;60.50
71177;DHT22;58877;51.992;4.504;2023-03-12T01:08:56;5.73;60.11
71177;DHT22;58877;51.992;4.504;2023-03-12T01:11:22;5.78;59.50
71177;DHT22;58877;51.992;4.504;2023-03-12T01:13:48;5.75;59.61
71177;DHT22;58877;51.992;4.504;2023-03-12T01:16:14;5.78;59.65
71177;DHT22;58877;51.992;4.504;2023-03-12T01:18:40;5.78;59.72
71177;DHT22;58877;51.992;4.504;2023-03-12T01:21:06;5.78;59.97
71177;DHT22;58877;51.992;4.504;2023-03-12T01:23:31;5.75;60.04
71177;DHT22;58877;51.992;4.504;2023-03-12T01:25:57;5.68;60.11
71177;DHT22;58877;51.992;4.504;2023-03-12T01:28:25;5.70;60.38
71177;DHT22;58877;51.992;4.504;2023-03-12T01:30:51;5.70;60.34
71177;DHT22;58877;51.992;4.504;2023-03-12T01:33:17;5.71;60.50
71177;DHT22;58877;51.992;4.504;2023-03-12T01:35:43;5.68;60.89
71177;DHT22;58877;51.992;4.504;2023-03-12T01:38:20;5.73;60.47
71177;DHT22;58877;51.992;4.504;2023-03-12T01:40:56;5.77;60.41
71177;DHT22;58877;51.992;4.504;2023-03-12T01:43:41;5.73;60.37
71177;DHT22;58877;51.992;4.504;2023-03-12T01:46:30;5.68;60.68
71177;DHT22;58877;51.992;4.504;2023-03-12T01:49:09;5.73;60.72
71177;DHT22;58877;51.992;4.504;2023-03-12T01:51:45;5.73;61.08
71177;DHT22;58877;51.992;4.504;2023-03-12T01:57:13;5.66;60.75
71177;DHT22;58877;51.992;4.504;2023-03-12T01:59:53;5.61;60.92
71177;DHT22;58877;51.992;4.504;2023-03-12T02:02:25;5.61;60.75
71177;DHT22;58877;51.992;4.504;2023-03-12T02:05:24;5.58;60.87
71177;DHT22;58877;51.992;4.504;2023-03-12T02:07:52;5.60;60.99
71177;DHT22;58877;51.992;4.504;2023-03-12T02:10:21;5.63;60.77
71177;DHT22;58877;51.992;4.504;2023-03-12T02:12:55;5.68;60.65
71177;DHT22;58877;51.992;4.504;2023-03-12T02:15:21;5.67;60.67
71177;DHT22;58877;51.992;4.504;2023-03-12T02:17:48;5.74;60.95
71177;DHT22;58877;51.992;4.504;2023-03-12T02:20:21;5.70;61.05
71177;DHT22;58877;51.992;4.504;2023-03-12T02:25:56;5.67;61.08
71177;DHT22;58877;51.992;4.504;2023-03-12T02:28:27;5.61;61.59
71177;DHT22;58877;51.992;4.504;2023-03-12T02:30:57;5.61;62.13
71177;DHT22;58877;51.992;4.504;2023-03-12T02:33:24;5.68;62.56
71177;DHT22;58877;51.992;4.504;2023-03-12T02:35:51;5.64;62.79
71177;DHT22;58877;51.992;4.504;2023-03-12T02:38:52;5.64;63.45
71177;DHT22;58877;51.992;4.504;2023-03-12T02:41:34;5.64;63.64
71177;DHT22;58877;51.992;4.504;2023-03-12T02:46:38;5.63;64.34
71177;DHT22;58877;51.992;4.504;2023-03-12T02:49:04;5.63;65.09
71177;DHT22;58877;51.992;4.504;2023-03-12T02:51:30;5.58;65.62
71177;DHT22;58877;51.992;4.504;2023-03-12T02:53:55;5.53;65.75
71177;DHT22;58877;51.992;4.504;2023-03-12T02:56:24;5.46;66.28
71177;DHT22;58877;51.992;4.504;2023-03-12T02:58:50;5.40;66.87
71177;DHT22;58877;51.992;4.504;2023-03-12T03:01:16;5.43;66.86
71177;DHT22;58877;51.992;4.504;2023-03-12T03:03:42;5.42;66.98
71177;DHT22;58877;51.992;4.504;2023-03-12T03:06:08;5.43;67.05
71177;DHT22;58877;51.992;4.504;2023-03-12T03:08:34;5.36;67.15
71177;DHT22;58877;51.992;4.504;2023-03-12T03:10:59;5.30;67.13
71177;DHT22;58877;51.992;4.504;2023-03-12T03:13:28;5.32;67.41
71177;DHT22;58877;51.992;4.504;2023-03-12T03:15:54;5.26;67.83
71177;DHT22;58877;51.992;4.504;2023-03-12T03:18:23;5.25;68.18
71177;DHT22;58877;51.992;4.504;2023-03-12T03:21:01;5.16;69.06
71177;DHT22;58877;51.992;4.504;2023-03-12T03:23:27;5.12;69.77
71177;DHT22;58877;51.992;4.504;2023-03-12T03:25:53;5.13;69.90
71177;DHT22;58877;51.992;4.504;2023-03-12T03:28:19;5.15;70.38
71177;DHT22;58877;51.992;4.504;2023-03-12T03:30:45;5.13;70.86
71177;DHT22;58877;51.992;4.504;2023-03-12T03:33:11;5.19;70.97
71177;DHT22;58877;51.992;4.504;2023-03-12T03:35:37;5.19;71.25
71177;DHT22;58877;51.992;4.504;2023-03-12T03:38:03;5.23;71.26
71177;DHT22;58877;51.992;4.504;2023-03-12T03:40:29;5.26;71.23
71177;DHT22;58877;51.992;4.504;2023-03-12T03:42:55;5.27;71.35
71177;DHT22;58877;51.992;4.504;2023-03-12T03:45:21;5.27;71.31
71177;DHT22;58877;51.992;4.504;2023-03-12T03:47:46;5.26;71.52
71177;DHT22;58877;51.992;4.504;2023-03-12T03:50:12;5.23;71.52
71177;DHT22;58877;51.992;4.504;2023-03-12T03:52:38;5.29;71.60
71177;DHT22;58877;51.992;4.504;2023-03-12T03:55:04;5.23;71.49
71177;DHT22;58877;51.992;4.504;2023-03-12T03:57:30;5.25;71.27
71177;DHT22;58877;51.992;4.504;2023-03-12T03:59:56;5.19;70.65
71177;DHT22;58877;51.992;4.504;2023-03-12T04:02:24;5.19;70.48
71177;DHT22;58877;51.992;4.504;2023-03-12T04:04:51;5.15;70.68
71177;DHT22;58877;51.992;4.504;2023-03-12T04:07:18;5.20;70.80
71177;DHT22;58877;51.992;4.504;2023-03-12T04:09:45;5.16;70.62
71177;DHT22;58877;51.992;4.504;2023-03-12T04:12:11;5.18;71.01
71177;DHT22;58877;51.992;4.504;2023-03-12T04:14:39;5.05;71.49
71177;DHT22;58877;51.992;4.504;2023-03-12T04:17:05;5.11;72.04
71177;DHT22;58877;51.992;4.504;2023-03-12T04:19:31;5.05;73.62
71177;DHT22;58877;51.992;4.504;2023-03-12T04:21:56;4.97;75.38
71177;DHT22;58877;51.992;4.504;2023-03-12T04:24:22;4.81;76.94
71177;DHT22;58877;51.992;4.504;2023-03-12T04:26:48;4.85;77.44
71177;DHT22;58877;51.992;4.504;2023-03-12T04:29:14;4.79;78.04
71177;DHT22;58877;51.992;4.504;2023-03-12T04:31:40;4.64;78.96
71177;DHT22;58877;51.992;4.504;2023-03-12T04:34:05;4.51;79.85
71177;DHT22;58877;51.992;4.504;2023-03-12T04:36:33;4.45;80.74
71177;DHT22;58877;51.992;4.504;2023-03-12T04:38:59;4.48;81.01
71177;DHT22;58877;51.992;4.504;2023-03-12T04:41:25;4.48;81.36
71177;DHT22;58877;51.992;4.504;2023-03-12T04:43:50;4.44;81.61
71177;DHT22;58877;51.992;4.504;2023-03-12T04:46:16;4.42;82.00
71177;DHT22;58877;51.992;4.504;2023-03-12T04:48:41;4.42;82.17
71177;DHT22;58877;51.992;4.504;2023-03-12T04:51:07;4.44;82.53
71177;DHT22;58877;51.992;4.504;2023-03-12T04:53:33;4.38;82.64
71177;DHT22;58877;51.992;4.504;2023-03-12T04:55:59;4.37;82.94
71177;DHT22;58877;51.992;4.504;2023-03-12T04:58:25;4.37;83.20
71177;DHT22;58877;51.992;4.504;2023-03-12T05:00:50;4.37;83.41
71177;DHT22;58877;51.992;4.504;2023-03-12T05:03:16;4.38;83.60
71177;DHT22;58877;51.992;4.504;2023-03-12T05:05:42;4.40;83.66
71177;DHT22;58877;51.992;4.504;2023-03-12T05:08:08;4.51;83.59
71177;DHT22;58877;51.992;4.504;2023-03-12T05:10:33;4.51;83.41
71177;DHT22;58877;51.992;4.504;2023-03-12T05:12:59;4.49;83.56
71177;DHT22;58877;51.992;4.504;2023-03-12T05:15:25;4.52;83.49
71177;DHT22;58877;51.992;4.504;2023-03-12T05:17:51;4.58;83.52
71177;DHT22;58877;51.992;4.504;2023-03-12T05:20:17;4.58;83.38
71177;DHT22;58877;51.992;4.504;2023-03-12T05:22:43;4.59;83.44
71177;DHT22;58877;51.992;4.504;2023-03-12T05:25:09;4.64;83.23
71177;DHT22;58877;51.992;4.504;2023-03-12T05:27:35;4.67;83.25
71177;DHT22;58877;51.992;4.504;2023-03-12T05:30:01;4.59;83.27
71177;DHT22;58877;51.992;4.504;2023-03-12T05:32:27;4.65;83.53
71177;DHT22;58877;51.992;4.504;2023-03-12T05:34:53;4.67;83.51
71177;DHT22;58877;51.992;4.504;2023-03-12T05:37:18;4.62;83.54
71177;DHT22;58877;51.992;4.504;2023-03-12T05:39:44;4.69;83.86
71177;DHT22;58877;51.992;4.504;2023-03-12T05:42:13;4.72;83.69
71177;DHT22;58877;51.992;4.504;2023-03-12T05:44:39;4.75;83.94
71177;DHT22;58877;51.992;4.504;2023-03-12T05:47:05;4.69;84.10
71177;DHT22;58877;51.992;4.504;2023-03-12T05:49:31;4.67;84.43
71177;DHT22;58877;51.992;4.504;2023-03-12T05:51:57;4.59;84.98
71177;DHT22;58877;51.992;4.504;2023-03-12T05:54:23;4.64;85.26
71177;DHT22;58877;51.992;4.504;2023-03-12T05:56:49;4.68;85.24
71177;DHT22;58877;51.992;4.504;2023-03-12T05:59:15;4.71;85.31
71177;DHT22;58877;51.992;4.504;2023-03-12T06:01:41;4.67;85.54
71177;DHT22;58877;51.992;4.504;2023-03-12T06:04:07;4.71;85.87
71177;DHT22;58877;51.992;4.504;2023-03-12T06:06:35;4.69;86.05
71177;DHT22;58877;51.992;4.504;2023-03-12T06:09:02;4.68;86.21
71177;DHT22;58877;51.992;4.504;2023-03-12T06:11:29;4.78;86.37
71177;DHT22;58877;51.992;4.504;2023-03-12T06:13:55;4.82;86.13
71177;DHT22;58877;51.992;4.504;2023-03-12T06:16:24;4.86;86.14
71177;DHT22;58877;51.992;4.504;2023-03-12T06:18:58;4.91;86.18
71177;DHT22;58877;51.992;4.504;2023-03-12T06:21:26;4.89;86.31
71177;DHT22;58877;51.992;4.504;2023-03-12T06:23:53;4.93;86.33
71177;DHT22;58877;51.992;4.504;2023-03-12T06:26:20;4.99;86.27
71177;DHT22;58877;51.992;4.504;2023-03-12T06:28:48;5.02;86.09
71177;DHT22;58877;51.992;4.504;2023-03-12T06:31:15;5.00;86.24
71177;DHT22;58877;51.992;4.504;2023-03-12T06:33:41;5.02;86.31
71177;DHT22;58877;51.992;4.504;2023-03-12T06:36:08;5.09;86.27
71177;DHT22;58877;51.992;4.504;2023-03-12T06:38:44;5.15;86.16
71177;DHT22;58877;51.992;4.504;2023-03-12T06:41:23;5.16;86.14
71177;DHT22;58877;51.992;4.504;2023-03-12T06:43:59;5.08;86.37
71177;DHT22;58877;51.992;4.504;2023-03-12T06:46:39;5.09;86.71
71177;DHT22;58877;51.992;4.504;2023-03-12T06:49:24;5.13;86.70
71177;DHT22;58877;51.992;4.504;2023-03-12T06:51:58;5.19;86.67
71177;DHT22;58877;51.992;4.504;2023-03-12T06:54:26;5.26;86.49
71177;DHT22;58877;51.992;4.504;2023-03-12T06:56:52;5.30;86.42
71177;DHT22;58877;51.992;4.504;2023-03-12T06:59:20;5.25;86.62
71177;DHT22;58877;51.992;4.504;2023-03-12T07:01:53;5.26;86.80
71177;DHT22;58877;51.992;4.504;2023-03-12T07:04:24;5.27;86.97
71177;DHT22;58877;51.992;4.504;2023-03-12T07:06:59;5.32;86.91
71177;DHT22;58877;51.992;4.504;2023-03-12T07:09:38;5.29;87.06
71177;DHT22;58877;51.992;4.504;2023-03-12T07:12:06;5.29;87.19
71177;DHT22;58877;51.992;4.504;2023-03-12T07:14:33;5.37;87.20
71177;DHT22;58877;51.992;4.504;2023-03-12T07:17:01;5.36;87.20
71177;DHT22;58877;51.992;4.504;2023-03-12T07:19:30;5.42;87.28
71177;DHT22;58877;51.992;4.504;2023-03-12T07:21:58;5.47;87.19
71177;DHT22;58877;51.992;4.504;2023-03-12T07:24:26;5.46;87.39
71177;DHT22;58877;51.992;4.504;2023-03-12T07:26:53;5.47;87.40
71177;DHT22;58877;51.992;4.504;2023-03-12T07:29:23;5.56;87.50
71177;DHT22;58877;51.992;4.504;2023-03-12T07:31:54;5.58;87.46
71177;DHT22;58877;51.992;4.504;2023-03-12T07:34:24;5.56;87.69
71177;DHT22;58877;51.992;4.504;2023-03-12T07:37:06;5.58;87.82
71177;DHT22;58877;51.992;4.504;2023-03-12T07:39:31;5.60;88.07
71177;DHT22;58877;51.992;4.504;2023-03-12T07:41:59;5.58;88.10
71177;DHT22;58877;51.992;4.504;2023-03-12T07:44:31;5.63;88.27
71177;DHT22;58877;51.992;4.504;2023-03-12T07:47:03;5.74;88.36
71177;DHT22;58877;51.992;4.504;2023-03-12T07:49:32;5.80;88.38
71177;DHT22;58877;51.992;4.504;2023-03-12T07:51:58;5.94;88.24
71177;DHT22;58877;51.992;4.504;2023-03-12T07:54:34;6.08;88.08
71177;DHT22;58877;51.992;4.504;2023-03-12T07:57:05;6.15;88.00
71177;DHT22;58877;51.992;4.504;2023-03-12T07:59:37;6.20;87.97
71177;DHT22;58877;51.992;4.504;2023-03-12T08:02:11;6.35;87.52
71177;DHT22;58877;51.992;4.504;2023-03-12T08:04:43;6.31;87.84
71177;DHT22;58877;51.992;4.504;2023-03-12T08:07:13;6.42;88.15
71177;DHT22;58877;51.992;4.504;2023-03-12T08:09:43;6.53;88.05
71177;DHT22;58877;51.992;4.504;2023-03-12T08:12:14;6.62;88.00
71177;DHT22;58877;51.992;4.504;2023-03-12T08:14:43;6.77;87.87
71177;DHT22;58877;51.992;4.504;2023-03-12T08:17:14;6.79;87.89
71177;DHT22;58877;51.992;4.504;2023-03-12T08:19:46;6.86;88.30
71177;DHT22;58877;51.992;4.504;2023-03-12T08:22:12;6.96;88.97
71177;DHT22;58877;51.992;4.504;2023-03-12T08:24:42;7.13;88.90
71177;DHT22;58877;51.992;4.504;2023-03-12T08:27:08;7.10;89.19
71177;DHT22;58877;51.992;4.504;2023-03-12T08:29:36;7.26;89.34
71177;DHT22;58877;51.992;4.504;2023-03-12T08:32:02;7.24;89.51
71177;DHT22;58877;51.992;4.504;2023-03-12T08:34:31;7.32;89.61
71177;DHT22;58877;51.992;4.504;2023-03-12T08:36:57;7.37;89.63
71177;DHT22;58877;51.992;4.504;2023-03-12T08:39:22;7.54;89.45
71177;DHT22;58877;51.992;4.504;2023-03-12T08:41:48;7.54;89.58
71177;DHT22;58877;51.992;4.504;2023-03-12T08:44:13;7.64;89.42
71177;DHT22;58877;51.992;4.504;2023-03-12T08:46:39;7.72;89.50
71177;DHT22;58877;51.992;4.504;2023-03-12T08:49:04;7.82;89.35
71177;DHT22;58877;51.992;4.504;2023-03-12T08:51:30;7.89;89.30
71177;DHT22;58877;51.992;4.504;2023-03-12T08:53:55;8.06;89.18
71177;DHT22;58877;51.992;4.504;2023-03-12T08:56:21;8.25;89.06
71177;DHT22;58877;51.992;4.504;2023-03-12T08:58:47;8.37;88.87
71177;DHT22;58877;51.992;4.504;2023-03-12T09:01:13;8.52;88.86
71177;DHT22;58877;51.992;4.504;2023-03-12T09:03:38;8.59;88.53
71177;DHT22;58877;51.992;4.504;2023-03-12T09:06:11;8.76;88.55
71177;DHT22;58877;51.992;4.504;2023-03-12T09:08:41;8.73;88.80
71177;DHT22;58877;51.992;4.504;2023-03-12T09:11:12;8.73;89.32
71177;DHT22;58877;51.992;4.504;2023-03-12T09:13:39;8.79;89.45
71177;DHT22;58877;51.992;4.504;2023-03-12T09:16:06;8.88;89.75
71177;DHT22;58877;51.992;4.504;2023-03-12T09:18:33;8.94;89.79
71177;DHT22;58877;51.992;4.504;2023-03-12T09:20:59;8.96;89.86
71177;DHT22;58877;51.992;4.504;2023-03-12T09:23:26;8.97;90.53
71177;DHT22;58877;51.992;4.504;2023-03-12T09:25:52;9.07;90.68
71177;DHT22;58877;51.992;4.504;2023-03-12T09:28:19;9.21;90.40
71177;DHT22;58877;51.992;4.504;2023-03-12T09:30:45;9.31;90.36
71177;DHT22;58877;51.992;4.504;2023-03-12T09:33:11;9.32;90.17
71177;DHT22;58877;51.992;4.504;2023-03-12T09:35:39;9.32;90.33
71177;DHT22;58877;51.992;4.504;2023-03-12T09:38:05;9.34;90.45
71177;DHT22;58877;51.992;4.504;2023-03-12T09:40:33;9.36;90.37
71177;DHT22;58877;51.992;4.504;2023-03-12T09:43:06;9.30;90.46
71177;DHT22;58877;51.992;4.504;2023-03-12T09:45:42;9.38;90.11
71177;DHT22;58877;51.992;4.504;2023-03-12T09:48:19;9.55;89.97
71177;DHT22;58877;51.992;4.504;2023-03-12T09:50:49;9.63;89.57
71177;DHT22;58877;51.992;4.504;2023-03-12T09:53:35;9.61;89.28
71177;DHT22;58877;51.992;4.504;2023-03-12T09:56:04;9.62;89.15
71177;DHT22;58877;51.992;4.504;2023-03-12T09:58:36;9.71;88.67
71177;DHT22;58877;51.992;4.504;2023-03-12T10:07:05;9.89;88.10
71177;DHT22;58877;51.992;4.504;2023-03-12T10:09:56;9.87;87.95
71177;DHT22;58877;51.992;4.504;2023-03-12T10:34:42;9.95;86.68
71177;DHT22;58877;51.992;4.504;2023-03-12T10:37:36;9.93;87.37
71177;DHT22;58877;51.992;4.504;2023-03-12T10:40:05;9.95;87.23
71177;DHT22;58877;51.992;4.504;2023-03-12T10:42:31;9.87;87.23
71177;DHT22;58877;51.992;4.504;2023-03-12T10:48:02;10.20;86.42
71177;DHT22;58877;51.992;4.504;2023-03-12T10:50:32;10.06;86.42
71177;DHT22;58877;51.992;4.504;2023-03-12T10:55:36;10.02;86.59
71177;DHT22;58877;51.992;4.504;2023-03-12T10:58:02;9.97;86.68
71177;DHT22;58877;51.992;4.504;2023-03-12T11:00:30;9.97;86.96
71177;DHT22;58877;51.992;4.504;2023-03-12T11:03:02;9.95;86.94
71177;DHT22;58877;51.992;4.504;2023-03-12T11:05:32;10.00;86.99
71177;DHT22;58877;51.992;4.504;2023-03-12T11:08:01;10.09;86.51
71177;DHT22;58877;51.992;4.504;2023-03-12T11:10:43;10.10;85.66
71177;DHT22;58877;51.992;4.504;2023-03-12T11:13:34;10.07;85.36
71177;DHT22;58877;51.992;4.504;2023-03-12T11:18:56;10.40;84.70
71177;DHT22;58877;51.992;4.504;2023-03-12T11:21:24;10.36;84.36
71177;DHT22;58877;51.992;4.504;2023-03-12T11:26:24;10.43;84.49
71177;DHT22;58877;51.992;4.504;2023-03-12T11:29:02;10.53;84.07
71177;DHT22;58877;51.992;4.504;2023-03-12T11:32:15;10.71;83.15
71177;DHT22;58877;51.992;4.504;2023-03-12T11:34:39;10.74;83.04
71177;DHT22;58877;51.992;4.504;2023-03-12T11:40:55;10.77;82.31
71177;DHT22;58877;51.992;4.504;2023-03-12T11:46:10;10.63;82.14
71177;DHT22;58877;51.992;4.504;2023-03-12T11:51:53;10.91;81.22
71177;DHT22;58877;51.992;4.504;2023-03-12T12:00:18;10.98;80.72
71177;DHT22;58877;51.992;4.504;2023-03-12T12:03:01;10.98;80.44
71177;DHT22;58877;51.992;4.504;2023-03-12T12:08:29;11.38;79.49
71177;DHT22;58877;51.992;4.504;2023-03-12T12:13:25;11.24;79.04
71177;DHT22;58877;51.992;4.504;2023-03-12T12:22:18;11.42;78.88
71177;DHT22;58877;51.992;4.504;2023-03-12T12:35:44;11.49;77.57
71177;DHT22;58877;51.992;4.504;2023-03-12T12:38:36;11.46;76.81
71177;DHT22;58877;51.992;4.504;2023-03-12T12:41:08;11.42;77.00
71177;DHT22;58877;51.992;4.504;2023-03-12T12:43:48;11.49;76.62
71177;DHT22;58877;51.992;4.504;2023-03-12T12:51:25;11.59;76.20
71177;DHT22;58877;51.992;4.504;2023-03-12T12:54:08;11.40;74.78
71177;DHT22;58877;51.992;4.504;2023-03-12T12:56:57;11.54;75.20
71177;DHT22;58877;51.992;4.504;2023-03-12T12:59:26;11.36;74.90
71177;DHT22;58877;51.992;4.504;2023-03-12T13:01:58;11.45;74.35
71177;DHT22;58877;51.992;4.504;2023-03-12T13:04:32;11.58;74.32
71177;DHT22;58877;51.992;4.504;2023-03-12T13:09:43;11.45;74.28
71177;DHT22;58877;51.992;4.504;2023-03-12T13:12:30;11.55;73.95
71177;DHT22;58877;51.992;4.504;2023-03-12T13:14:59;11.61;73.66
71177;DHT22;58877;51.992;4.504;2023-03-12T13:33:56;11.87;73.34
71177;DHT22;58877;51.992;4.504;2023-03-12T13:36:28;11.90;72.16
71177;DHT22;58877;51.992;4.504;2023-03-12T13:49:26;12.16;71.30
71177;DHT22;58877;51.992;4.504;2023-03-12T13:51:57;12.03;71.11
71177;DHT22;58877;51.992;4.504;2023-03-12T13:54:28;11.87;71.23
71177;DHT22;58877;51.992;4.504;2023-03-12T13:57:09;11.80;70.63
71177;DHT22;58877;51.992;4.504;2023-03-12T13:59:43;12.01;70.83
71177;DHT22;58877;51.992;4.504;2023-03-12T14:02:28;12.07;71.78
71177;DHT22;58877;51.992;4.504;2023-03-12T14:05:05;12.19;70.89
71177;DHT22;58877;51.992;4.504;2023-03-12T14:13:16;12.24;72.86
71177;DHT22;58877;51.992;4.504;2023-03-12T14:18:24;12.45;72.41
71177;DHT22;58877;51.992;4.504;2023-03-12T14:20:58;12.36;72.26
71177;DHT22;58877;51.992;4.504;2023-03-12T14:23:30;12.55;72.08
71177;DHT22;58877;51.992;4.504;2023-03-12T14:26:05;12.65;71.52
71177;DHT22;58877;51.992;4.504;2023-03-12T14:28:39;12.55;72.47
71177;DHT22;58877;51.992;4.504;2023-03-12T14:31:11;12.47;72.47
71177;DHT22;58877;51.992;4.504;2023-03-12T14:34:04;12.17;72.93
71177;DHT22;58877;51.992;4.504;2023-03-12T14:36:48;12.07;72.67
71177;DHT22;58877;51.992;4.504;2023-03-12T14:39:43;12.03;73.26
71177;DHT22;58877;51.992;4.504;2023-03-12T14:42:25;12.16;73.36
71177;DHT22;58877;51.992;4.504;2023-03-12T14:44:57;12.26;73.04
71177;DHT22;58877;51.992;4.504;2023-03-12T14:47:23;12.33;72.65
71177;DHT22;58877;51.992;4.504;2023-03-12T14:49:55;12.21;72.04
71177;DHT22;58877;51.992;4.504;2023-03-12T14:52:27;12.40;72.46
71177;DHT22;58877;51.992;4.504;2023-03-12T14:57:25;12.44;72.22
71177;DHT22;58877;51.992;4.504;2023-03-12T14:59:57;12.36;72.14
71177;DHT22;58877;51.992;4.504;2023-03-12T15:02:24;12.03;72.67
71177;DHT22;58877;51.992;4.504;2023-03-12T15:04:54;11.94;73.38
71177;DHT22;58877;51.992;4.504;2023-03-12T15:07:36;11.80;73.82
71177;DHT22;58877;51.992;4.504;2023-03-12T15:10:17;11.83;74.19
71177;DHT22;58877;51.992;4.504;2023-03-12T15:12:45;11.97;74.45
71177;DHT22;58877;51.992;4.504;2023-03-12T15:18:10;12.10;73.76
71177;DHT22;58877;51.992;4.504;2023-03-12T15:20:38;11.94;74.13
71177;DHT22;58877;51.992;4.504;2023-03-12T15:23:11;11.86;73.93
71177;DHT22;58877;51.992;4.504;2023-03-12T15:25:37;11.91;74.17
71177;DHT22;58877;51.992;4.504;2023-03-12T15:30:37;11.70;74.55
71177;DHT22;58877;51.992;4.504;2023-03-12T15:35:34;11.77;74.28
71177;DHT22;58877;51.992;4.504;2023-03-12T15:38:01;11.66;74.83
71177;DHT22;58877;51.992;4.504;2023-03-12T15:40:29;11.58;74.49
71177;DHT22;58877;51.992;4.504;2023-03-12T15:43:02;11.61;74.61
71177;DHT22;58877;51.992;4.504;2023-03-12T15:45:43;11.76;74.30
71177;DHT22;58877;51.992;4.504;2023-03-12T15:48:32;11.75;74.43
71177;DHT22;58877;51.992;4.504;2023-03-12T15:51:01;11.82;74.12
71177;DHT22;58877;51.992;4.504;2023-03-12T15:53:33;11.75;74.23
71177;DHT22;58877;51.992;4.504;2023-03-12T15:56:04;11.73;74.11
71177;DHT22;58877;51.992;4.504;2023-03-12T15:58:41;11.79;74.53
71177;DHT22;58877;51.992;4.504;2023-03-12T16:03:40;11.51;75.28
71177;DHT22;58877;51.992;4.504;2023-03-12T16:06:16;11.40;75.65
71177;DHT22;58877;51.992;4.504;2023-03-12T16:09:05;11.32;76.10
71177;DHT22;58877;51.992;4.504;2023-03-12T16:11:34;11.39;75.83
71177;DHT22;58877;51.992;4.504;2023-03-12T16:14:13;11.43;76.28
71177;DHT22;58877;51.992;4.504;2023-03-12T16:16:44;11.36;76.30
71177;DHT22;58877;51.992;4.504;2023-03-12T16:19:16;11.40;76.64
71177;DHT22;58877;51.992;4.504;2023-03-12T16:21:42;11.29;77.19
71177;DHT22;58877;51.992;4.504;2023-03-12T16:24:08;11.29;77.24
71177;DHT22;58877;51.992;4.504;2023-03-12T16:26:45;11.14;77.73
71177;DHT22;58877;51.992;4.504;2023-03-12T16:29:15;11.01;78.55
71177;DHT22;58877;51.992;4.504;2023-03-12T16:31:42;11.02;78.54
71177;DHT22;58877;51.992;4.504;2023-03-12T16:34:11;10.98;78.62
71177;DHT22;58877;51.992;4.504;2023-03-12T16:36:37;10.87;78.83
71177;DHT22;58877;51.992;4.504;2023-03-12T16:39:03;10.88;79.20
71177;DHT22;58877;51.992;4.504;2023-03-12T16:41:29;10.91;78.98
71177;DHT22;58877;51.992;4.504;2023-03-12T16:43:58;10.91;79.07
71177;DHT22;58877;51.992;4.504;2023-03-12T16:46:29;10.91;78.79
71177;DHT22;58877;51.992;4.504;2023-03-12T16:48:59;10.87;79.03
71177;DHT22;58877;51.992;4.504;2023-03-12T16:51:25;10.74;79.45
71177;DHT22;58877;51.992;4.504;2023-03-12T16:53:53;10.71;79.95
71177;DHT22;58877;51.992;4.504;2023-03-12T16:56:23;10.71;80.02
71177;DHT22;58877;51.992;4.504;2023-03-12T16:58:51;10.74;80.08
71177;DHT22;58877;51.992;4.504;2023-03-12T17:01:21;10.71;80.26
71177;DHT22;58877;51.992;4.504;2023-03-12T17:03:48;10.67;80.45
71177;DHT22;58877;51.992;4.504;2023-03-12T17:06:18;10.71;80.44
71177;DHT22;58877;51.992;4.504;2023-03-12T17:08:44;10.75;80.08
71177;DHT22;58877;51.992;4.504;2023-03-12T17:11:20;10.75;80.29
71177;DHT22;58877;51.992;4.504;2023-03-12T17:13:52;10.74;80.31
71177;DHT22;58877;51.992;4.504;2023-03-12T17:16:24;10.74;80.38
71177;DHT22;58877;51.992;4.504;2023-03-12T17:18:50;10.77;80.11
71177;DHT22;58877;51.992;4.504;2023-03-12T17:21:17;10.81;80.04
71177;DHT22;58877;51.992;4.504;2023-03-12T17:23:45;10.64;80.71
71177;DHT22;58877;51.992;4.504;2023-03-12T17:26:15;10.63;80.89
71177;DHT22;58877;51.992;4.504;2023-03-12T17:28:41;10.65;81.12
71177;DHT22;58877;51.992;4.504;2023-03-12T17:31:23;10.57;80.98
71177;DHT22;58877;51.992;4.504;2023-03-12T17:33:49;10.64;80.74
71177;DHT22;58877;51.992;4.504;2023-03-12T17:36:15;10.68;80.43
71177;DHT22;58877;51.992;4.504;2023-03-12T17:38:41;10.61;79.97
71177;DHT22;58877;51.992;4.504;2023-03-12T17:41:07;10.65;79.91
71177;DHT22;58877;51.992;4.504;2023-03-12T17:43:33;10.61;79.99
71177;DHT22;58877;51.992;4.504;2023-03-12T17:46:07;10.63;79.78
71177;DHT22;58877;51.992;4.504;2023-03-12T17:48:33;10.61;79.84
71177;DHT22;58877;51.992;4.504;2023-03-12T17:51:08;10.63;80.00
71177;DHT22;58877;51.992;4.504;2023-03-12T17:53:35;10.60;80.03
71177;DHT22;58877;51.992;4.504;2023-03-12T17:56:01;10.61;80.04
71177;DHT22;58877;51.992;4.504;2023-03-12T17:58:26;10.64;79.98
71177;DHT22;58877;51.992;4.504;2023-03-12T18:00:58;10.65;79.91
71177;DHT22;58877;51.992;4.504;2023-03-12T18:03:40;10.64;80.07
71177;DHT22;58877;51.992;4.504;2023-03-12T18:06:10;10.63;80.24
71177;DHT22;58877;51.992;4.504;2023-03-12T18:08:37;10.63;80.40
71177;DHT22;58877;51.992;4.504;2023-03-12T18:11:05;10.71;80.05
71177;DHT22;58877;51.992;4.504;2023-03-12T18:13:30;10.72;80.17
71177;DHT22;58877;51.992;4.504;2023-03-12T18:16:00;10.70;80.22
71177;DHT22;58877;51.992;4.504;2023-03-12T18:18:29;10.65;80.57